sensor_id;sensor_type;location;lat;lon;timestamp;temperature;humidity
16315;DHT22;8266;52.150;4.768;2023-07-30T00:01:39;21.30;99.90
16315;DHT22;8266;52.150;4.768;2023-07-30T00:04:06;21.30;99.90
16315;DHT22;8266;52.150;4.768;2023-07-30T00:06:33;21.30;99.90
16315;DHT22;8266;52.150;4.768;2023-07-30T00:09:01;21.30;99.90
16315;DHT22;8266;52.150;4.768;2023-07-30T00:11:29;21.20;99.90
16315;DHT22;8266;52.150;4.768;2023-07-30T00:13:56;21.30;99.90
16315;DHT22;8266;52.150;4.768;2023-07-30T00:16:25;21.20;99.90
16315;DHT22;8266;52.150;4.768;2023-07-30T00:18:52;21.20;99.90
16315;DHT22;8266;52.150;4.768;2023-07-30T00:21:19;21.20;99.90
16315;DHT22;8266;52.150;4.768;2023-07-30T00:23:46;21.20;99.90
16315;DHT22;8266;52.150;4.768;2023-07-30T00:26:14;21.20;99.90
16315;DHT22;8266;52.150;4.768;2023-07-30T00:28:41;21.10;99.90
16315;DHT22;8266;52.150;4.768;2023-07-30T00:31:09;21.20;99.90
16315;DHT22;8266;52.150;4.768;2023-07-30T00:33:36;21.20;99.90
16315;DHT22;8266;52.150;4.768;2023-07-30T00:36:03;21.20;99.90
16315;DHT22;8266;52.150;4.768;2023-07-30T00:38:30;21.20;99.90
16315;DHT22;8266;52.150;4.768;2023-07-30T00:40:56;21.20;99.90
16315;DHT22;8266;52.150;4.768;2023-07-30T00:43:25;21.20;99.90
16315;DHT22;8266;52.150;4.768;2023-07-30T00:45:52;21.20;99.90
16315;DHT22;8266;52.150;4.768;2023-07-30T00:48:19;21.20;99.90
16315;DHT22;8266;52.150;4.768;2023-07-30T00:50:47;21.20;99.90
16315;DHT22;8266;52.150;4.768;2023-07-30T00:53:15;21.20;99.90
16315;DHT22;8266;52.150;4.768;2023-07-30T00:55:43;21.20;99.90
16315;DHT22;8266;52.150;4.768;2023-07-30T00:58:11;21.20;99.90
16315;DHT22;8266;52.150;4.768;2023-07-30T01:00:40;21.20;99.90
16315;DHT22;8266;52.150;4.768;2023-07-30T01:03:08;21.20;99.90
16315;DHT22;8266;52.150;4.768;2023-07-30T01:05:35;21.20;99.90
16315;DHT22;8266;52.150;4.768;2023-07-30T01:08:02;21.20;99.90
16315;DHT22;8266;52.150;4.768;2023-07-30T01:10:31;21.20;99.90
16315;DHT22;8266;52.150;4.768;2023-07-30T01:13:00;21.20;99.90
16315;DHT22;8266;52.150;4.768;2023-07-30T01:15:28;21.20;99.90
16315;DHT22;8266;52.150;4.768;2023-07-30T01:17:57;21.20;99.90
16315;DHT22;8266;52.150;4.768;2023-07-30T01:20:24;21.20;99.90
16315;DHT22;8266;52.150;4.768;2023-07-30T01:22:52;21.20;99.90
16315;DHT22;8266;52.150;4.768;2023-07-30T01:25:20;21.10;99.90
16315;DHT22;8266;52.150;4.768;2023-07-30T01:27:52;21.10;99.90
16315;DHT22;8266;52.150;4.768;2023-07-30T01:30:25;21.10;99.90
16315;DHT22;8266;52.150;4.768;2023-07-30T01:32:52;21.10;99.90
16315;DHT22;8266;52.150;4.768;2023-07-30T01:35:21;21.10;99.90
16315;DHT22;8266;52.150;4.768;2023-07-30T01:37:49;21.20;99.90
16315;DHT22;8266;52.150;4.768;2023-07-30T01:40:18;21.10;99.90
16315;DHT22;8266;52.150;4.768;2023-07-30T01:42:46;21.10;99.90
16315;DHT22;8266;52.150;4.768;2023-07-30T01:45:13;21.20;99.90
16315;DHT22;8266;52.150;4.768;2023-07-30T01:47:40;21.10;99.90
16315;DHT22;8266;52.150;4.768;2023-07-30T01:50:07;21.10;99.90
16315;DHT22;8266;52.150;4.768;2023-07-30T01:52:34;21.10;99.90
16315;DHT22;8266;52.150;4.768;2023-07-30T01:55:01;21.10;99.90
16315;DHT22;8266;52.150;4.768;2023-07-30T01:57:30;21.10;99.90
16315;DHT22;8266;52.150;4.768;2023-07-30T01:59:57;21.10;99.90
16315;DHT22;8266;52.150;4.768;2023-07-30T02:02:24;21.10;99.90
16315;DHT22;8266;52.150;4.768;2023-07-30T02:04:50;21.10;99.90
16315;DHT22;8266;52.150;4.768;2023-07-30T02:07:17;21.10;99.90
16315;DHT22;8266;52.150;4.768;2023-07-30T02:09:44;21.10;99.90
16315;DHT22;8266;52.150;4.768;2023-07-30T02:12:11;21.10;99.90
16315;DHT22;8266;52.150;4.768;2023-07-30T02:14:40;21.10;99.90
16315;DHT22;8266;52.150;4.768;2023-07-30T02:17:07;21.10;99.90
16315;DHT22;8266;52.150;4.768;2023-07-30T02:19:34;21.10;99.90
16315;DHT22;8266;52.150;4.768;2023-07-30T02:22:00;21.00;99.90
16315;DHT22;8266;52.150;4.768;2023-07-30T02:24:28;21.00;99.90
16315;DHT22;8266;52.150;4.768;2023-07-30T02:26:54;21.00;99.90
16315;DHT22;8266;52.150;4.768;2023-07-30T02:29:21;21.00;99.90
16315;DHT22;8266;52.150;4.768;2023-07-30T02:31:50;21.00;99.90
16315;DHT22;8266;52.150;4.768;2023-07-30T02:34:16;21.00;99.90
16315;DHT22;8266;52.150;4.768;2023-07-30T02:36:43;21.00;99.90
16315;DHT22;8266;52.150;4.768;2023-07-30T02:39:11;21.00;99.90
16315;DHT22;8266;52.150;4.768;2023-07-30T02:41:37;21.00;99.90
16315;DHT22;8266;52.150;4.768;2023-07-30T02:44:04;20.90;99.90
16315;DHT22;8266;52.150;4.768;2023-07-30T02:46:31;21.00;99.90
16315;DHT22;8266;52.150;4.768;2023-07-30T02:48:59;20.90;99.90
16315;DHT22;8266;52.150;4.768;2023-07-30T02:51:27;21.00;99.90
16315;DHT22;8266;52.150;4.768;2023-07-30T02:53:57;21.00;99.90
16315;DHT22;8266;52.150;4.768;2023-07-30T02:56:24;20.90;99.90
16315;DHT22;8266;52.150;4.768;2023-07-30T02:58:51;20.90;99.90
16315;DHT22;8266;52.150;4.768;2023-07-30T03:01:18;20.90;99.90
16315;DHT22;8266;52.150;4.768;2023-07-30T03:03:45;21.00;99.90
16315;DHT22;8266;52.150;4.768;2023-07-30T03:06:13;21.00;99.90
16315;DHT22;8266;52.150;4.768;2023-07-30T03:08:42;20.90;99.90
16315;DHT22;8266;52.150;4.768;2023-07-30T03:11:09;20.90;99.90
16315;DHT22;8266;52.150;4.768;2023-07-30T03:13:36;20.90;99.90
16315;DHT22;8266;52.150;4.768;2023-07-30T03:16:03;20.90;99.90
16315;DHT22;8266;52.150;4.768;2023-07-30T03:18:30;20.90;99.90
16315;DHT22;8266;52.150;4.768;2023-07-30T03:20:58;20.90;99.90
16315;DHT22;8266;52.150;4.768;2023-07-30T03:23:27;20.90;99.90
16315;DHT22;8266;52.150;4.768;2023-07-30T03:25:54;20.90;99.90
16315;DHT22;8266;52.150;4.768;2023-07-30T03:28:21;20.90;99.90
16315;DHT22;8266;52.150;4.768;2023-07-30T03:30:48;20.90;99.90
16315;DHT22;8266;52.150;4.768;2023-07-30T03:33:15;20.90;99.90
16315;DHT22;8266;52.150;4.768;2023-07-30T03:35:42;20.90;99.90
16315;DHT22;8266;52.150;4.768;2023-07-30T03:38:09;20.90;99.90
16315;DHT22;8266;52.150;4.768;2023-07-30T03:40:37;20.90;99.90
16315;DHT22;8266;52.150;4.768;2023-07-30T03:43:04;20.90;99.90
16315;DHT22;8266;52.150;4.768;2023-07-30T03:45:31;20.90;99.90
16315;DHT22;8266;52.150;4.768;2023-07-30T03:47:58;20.90;99.90
16315;DHT22;8266;52.150;4.768;2023-07-30T03:50:25;20.90;99.90
16315;DHT22;8266;52.150;4.768;2023-07-30T03:52:53;20.90;99.90
16315;DHT22;8266;52.150;4.768;2023-07-30T03:55:20;20.80;99.90
16315;DHT22;8266;52.150;4.768;2023-07-30T03:57:48;20.80;99.90
16315;DHT22;8266;52.150;4.768;2023-07-30T04:00:15;20.80;99.90
16315;DHT22;8266;52.150;4.768;2023-07-30T04:02:42;20.70;99.90
16315;DHT22;8266;52.150;4.768;2023-07-30T04:05:09;20.70;99.90
16315;DHT22;8266;52.150;4.768;2023-07-30T04:07:36;20.70;99.90
16315;DHT22;8266;52.150;4.768;2023-07-30T04:10:03;20.70;99.90
16315;DHT22;8266;52.150;4.768;2023-07-30T04:12:30;20.70;99.90
16315;DHT22;8266;52.150;4.768;2023-07-30T04:14:58;20.70;99.90
16315;DHT22;8266;52.150;4.768;2023-07-30T04:17:25;20.70;99.90
16315;DHT22;8266;52.150;4.768;2023-07-30T04:19:52;20.70;99.90
16315;DHT22;8266;52.150;4.768;2023-07-30T04:22:19;20.70;99.90
16315;DHT22;8266;52.150;4.768;2023-07-30T04:24:46;20.70;99.90
16315;DHT22;8266;52.150;4.768;2023-07-30T04:27:13;20.70;99.90
16315;DHT22;8266;52.150;4.768;2023-07-30T04:29:40;20.60;99.90
16315;DHT22;8266;52.150;4.768;2023-07-30T04:32:08;20.70;99.90
16315;DHT22;8266;52.150;4.768;2023-07-30T04:34:35;20.60;99.90
16315;DHT22;8266;52.150;4.768;2023-07-30T04:37:03;20.70;99.90
16315;DHT22;8266;52.150;4.768;2023-07-30T04:39:30;20.70;99.90
16315;DHT22;8266;52.150;4.768;2023-07-30T04:41:57;20.70;99.90
16315;DHT22;8266;52.150;4.768;2023-07-30T04:44:24;20.70;99.90
16315;DHT22;8266;52.150;4.768;2023-07-30T04:46:51;20.80;99.90
16315;DHT22;8266;52.150;4.768;2023-07-30T04:49:19;20.70;99.90
16315;DHT22;8266;52.150;4.768;2023-07-30T04:51:46;20.70;99.90
16315;DHT22;8266;52.150;4.768;2023-07-30T04:54:13;20.80;99.90
16315;DHT22;8266;52.150;4.768;2023-07-30T04:56:40;20.80;99.90
16315;DHT22;8266;52.150;4.768;2023-07-30T04:59:07;20.80;99.90
16315;DHT22;8266;52.150;4.768;2023-07-30T05:01:34;20.80;99.90
16315;DHT22;8266;52.150;4.768;2023-07-30T05:04:01;20.80;99.90
16315;DHT22;8266;52.150;4.768;2023-07-30T05:06:29;20.90;99.90
16315;DHT22;8266;52.150;4.768;2023-07-30T05:08:56;20.80;99.90
16315;DHT22;8266;52.150;4.768;2023-07-30T05:11:23;20.90;99.90
16315;DHT22;8266;52.150;4.768;2023-07-30T05:13:50;20.90;99.90
16315;DHT22;8266;52.150;4.768;2023-07-30T05:16:17;20.90;99.90
16315;DHT22;8266;52.150;4.768;2023-07-30T05:18:44;20.90;99.90
16315;DHT22;8266;52.150;4.768;2023-07-30T05:21:11;20.90;99.90
16315;DHT22;8266;52.150;4.768;2023-07-30T05:23:39;20.90;99.90
16315;DHT22;8266;52.150;4.768;2023-07-30T05:26:06;20.90;99.90
16315;DHT22;8266;52.150;4.768;2023-07-30T05:28:33;20.90;99.90
16315;DHT22;8266;52.150;4.768;2023-07-30T05:31:00;20.90;99.90
16315;DHT22;8266;52.150;4.768;2023-07-30T05:33:27;20.90;99.90
16315;DHT22;8266;52.150;4.768;2023-07-30T05:35:54;21.00;99.90
16315;DHT22;8266;52.150;4.768;2023-07-30T05:38:21;21.00;99.90
16315;DHT22;8266;52.150;4.768;2023-07-30T05:40:49;21.00;99.90
16315;DHT22;8266;52.150;4.768;2023-07-30T05:43:16;21.00;99.90
16315;DHT22;8266;52.150;4.768;2023-07-30T05:45:43;21.00;99.90
16315;DHT22;8266;52.150;4.768;2023-07-30T05:48:10;21.00;99.90
16315;DHT22;8266;52.150;4.768;2023-07-30T05:50:37;21.00;99.90
16315;DHT22;8266;52.150;4.768;2023-07-30T05:53:04;21.00;99.90
16315;DHT22;8266;52.150;4.768;2023-07-30T05:55:31;21.00;99.90
16315;DHT22;8266;52.150;4.768;2023-07-30T05:57:59;21.00;99.90
16315;DHT22;8266;52.150;4.768;2023-07-30T06:00:26;21.00;99.90
16315;DHT22;8266;52.150;4.768;2023-07-30T06:02:53;21.00;99.90
16315;DHT22;8266;52.150;4.768;2023-07-30T06:05:20;21.10;99.90
16315;DHT22;8266;52.150;4.768;2023-07-30T06:07:49;21.10;99.90
16315;DHT22;8266;52.150;4.768;2023-07-30T06:10:16;21.10;99.90
16315;DHT22;8266;52.150;4.768;2023-07-30T06:12:43;21.10;99.90
16315;DHT22;8266;52.150;4.768;2023-07-30T06:15:11;21.10;99.90
16315;DHT22;8266;52.150;4.768;2023-07-30T06:17:38;21.20;99.90
16315;DHT22;8266;52.150;4.768;2023-07-30T06:20:06;21.20;99.90
16315;DHT22;8266;52.150;4.768;2023-07-30T06:22:34;21.20;99.90
16315;DHT22;8266;52.150;4.768;2023-07-30T06:25:01;21.20;99.90
16315;DHT22;8266;52.150;4.768;2023-07-30T06:27:27;21.30;99.90
16315;DHT22;8266;52.150;4.768;2023-07-30T06:29:54;21.30;99.90
16315;DHT22;8266;52.150;4.768;2023-07-30T06:32:23;21.30;99.90
16315;DHT22;8266;52.150;4.768;2023-07-30T06:34:50;21.30;99.90
16315;DHT22;8266;52.150;4.768;2023-07-30T06:37:17;21.20;99.90
16315;DHT22;8266;52.150;4.768;2023-07-30T06:39:44;21.20;99.90
16315;DHT22;8266;52.150;4.768;2023-07-30T06:42:11;21.30;99.90
16315;DHT22;8266;52.150;4.768;2023-07-30T06:44:38;21.30;99.90
16315;DHT22;8266;52.150;4.768;2023-07-30T06:47:05;21.30;99.90
16315;DHT22;8266;52.150;4.768;2023-07-30T06:49:33;21.30;99.90
16315;DHT22;8266;52.150;4.768;2023-07-30T06:52:01;21.30;99.90
16315;DHT22;8266;52.150;4.768;2023-07-30T06:54:29;21.30;99.90
16315;DHT22;8266;52.150;4.768;2023-07-30T06:56:56;21.30;99.90
16315;DHT22;8266;52.150;4.768;2023-07-30T06:59:23;21.40;99.90
16315;DHT22;8266;52.150;4.768;2023-07-30T07:01:50;21.30;99.90
16315;DHT22;8266;52.150;4.768;2023-07-30T07:04:17;21.30;99.90
16315;DHT22;8266;52.150;4.768;2023-07-30T07:06:46;21.30;99.90
16315;DHT22;8266;52.150;4.768;2023-07-30T07:09:13;21.30;99.90
16315;DHT22;8266;52.150;4.768;2023-07-30T07:11:40;21.30;99.90
16315;DHT22;8266;52.150;4.768;2023-07-30T07:14:07;21.30;99.90
16315;DHT22;8266;52.150;4.768;2023-07-30T07:16:34;21.30;99.90
16315;DHT22;8266;52.150;4.768;2023-07-30T07:19:01;21.20;99.90
16315;DHT22;8266;52.150;4.768;2023-07-30T07:21:28;21.20;99.90
16315;DHT22;8266;52.150;4.768;2023-07-30T07:23:56;21.20;99.90
16315;DHT22;8266;52.150;4.768;2023-07-30T07:26:23;21.20;99.90
16315;DHT22;8266;52.150;4.768;2023-07-30T07:28:50;21.20;99.90
16315;DHT22;8266;52.150;4.768;2023-07-30T07:31:17;21.20;99.90
16315;DHT22;8266;52.150;4.768;2023-07-30T07:33:45;21.20;99.90
16315;DHT22;8266;52.150;4.768;2023-07-30T07:36:12;21.20;99.90
16315;DHT22;8266;52.150;4.768;2023-07-30T07:38:40;21.10;99.90
16315;DHT22;8266;52.150;4.768;2023-07-30T07:41:14;21.10;99.90
16315;DHT22;8266;52.150;4.768;2023-07-30T07:43:41;21.10;99.90
16315;DHT22;8266;52.150;4.768;2023-07-30T07:46:09;21.10;99.90
16315;DHT22;8266;52.150;4.768;2023-07-30T07:48:38;21.00;99.90
16315;DHT22;8266;52.150;4.768;2023-07-30T07:51:06;21.00;99.90
16315;DHT22;8266;52.150;4.768;2023-07-30T07:53:33;21.00;99.90
16315;DHT22;8266;52.150;4.768;2023-07-30T07:55:59;21.10;99.90
16315;DHT22;8266;52.150;4.768;2023-07-30T07:58:28;21.10;99.90
16315;DHT22;8266;52.150;4.768;2023-07-30T08:00:55;21.10;99.90
16315;DHT22;8266;52.150;4.768;2023-07-30T08:03:22;21.10;99.90
16315;DHT22;8266;52.150;4.768;2023-07-30T08:05:49;21.20;99.90
16315;DHT22;8266;52.150;4.768;2023-07-30T08:08:16;21.30;99.90
16315;DHT22;8266;52.150;4.768;2023-07-30T08:10:43;21.40;99.90
16315;DHT22;8266;52.150;4.768;2023-07-30T08:13:12;21.60;99.90
16315;DHT22;8266;52.150;4.768;2023-07-30T08:15:41;21.80;99.90
16315;DHT22;8266;52.150;4.768;2023-07-30T08:18:08;21.90;99.90
16315;DHT22;8266;52.150;4.768;2023-07-30T08:20:35;22.10;99.90
16315;DHT22;8266;52.150;4.768;2023-07-30T08:23:02;22.30;99.90
16315;DHT22;8266;52.150;4.768;2023-07-30T08:25:29;22.40;99.90
16315;DHT22;8266;52.150;4.768;2023-07-30T08:27:56;22.50;99.90
16315;DHT22;8266;52.150;4.768;2023-07-30T08:30:23;22.70;99.90
16315;DHT22;8266;52.150;4.768;2023-07-30T08:32:51;22.90;99.90
16315;DHT22;8266;52.150;4.768;2023-07-30T08:35:18;23.00;99.90
16315;DHT22;8266;52.150;4.768;2023-07-30T08:37:45;23.20;99.90
16315;DHT22;8266;52.150;4.768;2023-07-30T08:40:14;23.30;99.90
16315;DHT22;8266;52.150;4.768;2023-07-30T08:42:41;23.40;99.90
16315;DHT22;8266;52.150;4.768;2023-07-30T08:45:08;23.60;99.90
16315;DHT22;8266;52.150;4.768;2023-07-30T08:47:35;23.70;99.90
16315;DHT22;8266;52.150;4.768;2023-07-30T08:50:04;23.80;99.90
16315;DHT22;8266;52.150;4.768;2023-07-30T08:52:32;23.90;99.90
16315;DHT22;8266;52.150;4.768;2023-07-30T08:55:02;24.00;99.90
16315;DHT22;8266;52.150;4.768;2023-07-30T08:57:29;24.20;99.90
16315;DHT22;8266;52.150;4.768;2023-07-30T09:00:02;24.30;99.90
16315;DHT22;8266;52.150;4.768;2023-07-30T09:02:34;24.50;99.90
16315;DHT22;8266;52.150;4.768;2023-07-30T09:05:01;24.60;99.90
16315;DHT22;8266;52.150;4.768;2023-07-30T09:07:30;24.70;99.90
16315;DHT22;8266;52.150;4.768;2023-07-30T09:09:57;24.80;99.90
16315;DHT22;8266;52.150;4.768;2023-07-30T09:12:26;24.90;99.90
16315;DHT22;8266;52.150;4.768;2023-07-30T09:14:55;24.90;99.90
16315;DHT22;8266;52.150;4.768;2023-07-30T09:17:22;24.90;99.90
16315;DHT22;8266;52.150;4.768;2023-07-30T09:19:49;24.90;99.90
16315;DHT22;8266;52.150;4.768;2023-07-30T09:22:20;24.90;99.90
16315;DHT22;8266;52.150;4.768;2023-07-30T09:24:49;24.90;99.90
16315;DHT22;8266;52.150;4.768;2023-07-30T09:27:20;24.80;99.90
16315;DHT22;8266;52.150;4.768;2023-07-30T09:29:51;24.80;99.90
16315;DHT22;8266;52.150;4.768;2023-07-30T09:32:19;24.80;99.90
16315;DHT22;8266;52.150;4.768;2023-07-30T09:34:46;24.70;99.90
16315;DHT22;8266;52.150;4.768;2023-07-30T09:37:13;24.80;99.90
16315;DHT22;8266;52.150;4.768;2023-07-30T09:39:41;24.80;99.90
16315;DHT22;8266;52.150;4.768;2023-07-30T09:42:10;24.80;99.90
16315;DHT22;8266;52.150;4.768;2023-07-30T09:44:38;24.90;99.90
16315;DHT22;8266;52.150;4.768;2023-07-30T09:47:09;25.00;99.90
16315;DHT22;8266;52.150;4.768;2023-07-30T09:49:36;25.10;99.90
16315;DHT22;8266;52.150;4.768;2023-07-30T09:52:03;25.20;99.90
16315;DHT22;8266;52.150;4.768;2023-07-30T09:54:31;25.30;99.90
16315;DHT22;8266;52.150;4.768;2023-07-30T09:56:58;25.40;99.90
16315;DHT22;8266;52.150;4.768;2023-07-30T09:59:27;25.50;99.90
16315;DHT22;8266;52.150;4.768;2023-07-30T10:01:54;25.60;99.90
16315;DHT22;8266;52.150;4.768;2023-07-30T10:04:22;25.80;99.90
16315;DHT22;8266;52.150;4.768;2023-07-30T10:07:02;26.00;99.90
16315;DHT22;8266;52.150;4.768;2023-07-30T10:09:33;26.20;99.90
16315;DHT22;8266;52.150;4.768;2023-07-30T10:12:04;26.30;99.90
16315;DHT22;8266;52.150;4.768;2023-07-30T10:14:34;26.50;99.90
16315;DHT22;8266;52.150;4.768;2023-07-30T10:17:01;26.70;99.90
16315;DHT22;8266;52.150;4.768;2023-07-30T10:19:28;26.80;99.90
16315;DHT22;8266;52.150;4.768;2023-07-30T10:22:19;26.80;99.90
16315;DHT22;8266;52.150;4.768;2023-07-30T10:24:55;26.70;99.90
16315;DHT22;8266;52.150;4.768;2023-07-30T10:27:24;26.60;99.90
16315;DHT22;8266;52.150;4.768;2023-07-30T10:30:08;26.50;99.90
16315;DHT22;8266;52.150;4.768;2023-07-30T10:32:40;26.30;99.90
16315;DHT22;8266;52.150;4.768;2023-07-30T10:35:07;26.20;99.90
16315;DHT22;8266;52.150;4.768;2023-07-30T10:37:34;26.10;99.90
16315;DHT22;8266;52.150;4.768;2023-07-30T10:40:16;26.00;99.90
16315;DHT22;8266;52.150;4.768;2023-07-30T10:42:43;25.90;99.90
16315;DHT22;8266;52.150;4.768;2023-07-30T10:45:12;25.80;99.90
16315;DHT22;8266;52.150;4.768;2023-07-30T10:47:41;25.70;99.90
16315;DHT22;8266;52.150;4.768;2023-07-30T10:50:09;25.60;99.90
16315;DHT22;8266;52.150;4.768;2023-07-30T10:52:37;25.50;99.90
16315;DHT22;8266;52.150;4.768;2023-07-30T10:55:05;25.50;99.90
16315;DHT22;8266;52.150;4.768;2023-07-30T10:57:32;25.50;99.90
16315;DHT22;8266;52.150;4.768;2023-07-30T10:59:59;25.50;99.90
16315;DHT22;8266;52.150;4.768;2023-07-30T11:02:29;25.50;99.90
16315;DHT22;8266;52.150;4.768;2023-07-30T11:04:56;25.60;99.90
16315;DHT22;8266;52.150;4.768;2023-07-30T11:07:23;25.60;99.90
16315;DHT22;8266;52.150;4.768;2023-07-30T11:09:58;25.60;99.90
16315;DHT22;8266;52.150;4.768;2023-07-30T11:12:26;25.60;99.90
16315;DHT22;8266;52.150;4.768;2023-07-30T11:15:00;25.60;99.90
16315;DHT22;8266;52.150;4.768;2023-07-30T11:17:29;25.70;99.90
16315;DHT22;8266;52.150;4.768;2023-07-30T11:19:55;25.80;99.90
16315;DHT22;8266;52.150;4.768;2023-07-30T11:22:29;25.90;99.90
16315;DHT22;8266;52.150;4.768;2023-07-30T11:24:57;26.00;99.90
16315;DHT22;8266;52.150;4.768;2023-07-30T11:27:24;26.00;99.90
16315;DHT22;8266;52.150;4.768;2023-07-30T11:29:55;26.10;99.90
16315;DHT22;8266;52.150;4.768;2023-07-30T11:32:22;26.10;99.90
16315;DHT22;8266;52.150;4.768;2023-07-30T11:34:52;26.20;99.90
16315;DHT22;8266;52.150;4.768;2023-07-30T11:37:20;26.40;99.90
16315;DHT22;8266;52.150;4.768;2023-07-30T11:39:48;26.60;99.90
16315;DHT22;8266;52.150;4.768;2023-07-30T11:42:15;26.70;99.90
16315;DHT22;8266;52.150;4.768;2023-07-30T11:44:42;26.90;99.90
16315;DHT22;8266;52.150;4.768;2023-07-30T11:47:09;27.00;99.90
16315;DHT22;8266;52.150;4.768;2023-07-30T11:49:36;27.00;99.90
16315;DHT22;8266;52.150;4.768;2023-07-30T11:52:08;27.20;99.90
16315;DHT22;8266;52.150;4.768;2023-07-30T11:54:36;27.20;99.90
16315;DHT22;8266;52.150;4.768;2023-07-30T11:57:04;27.20;99.90
16315;DHT22;8266;52.150;4.768;2023-07-30T11:59:31;27.10;99.90
16315;DHT22;8266;52.150;4.768;2023-07-30T12:01:58;27.00;99.90
16315;DHT22;8266;52.150;4.768;2023-07-30T12:04:25;27.00;99.90
16315;DHT22;8266;52.150;4.768;2023-07-30T12:06:56;26.90;99.90
16315;DHT22;8266;52.150;4.768;2023-07-30T12:09:25;26.90;99.90
16315;DHT22;8266;52.150;4.768;2023-07-30T12:11:53;26.90;99.90
16315;DHT22;8266;52.150;4.768;2023-07-30T12:14:22;26.90;99.90
16315;DHT22;8266;52.150;4.768;2023-07-30T12:16:55;26.90;99.90
16315;DHT22;8266;52.150;4.768;2023-07-30T12:19:22;26.90;99.90
16315;DHT22;8266;52.150;4.768;2023-07-30T12:21:49;26.90;99.90
16315;DHT22;8266;52.150;4.768;2023-07-30T12:24:16;27.00;99.90
16315;DHT22;8266;52.150;4.768;2023-07-30T12:26:45;26.90;99.90
16315;DHT22;8266;52.150;4.768;2023-07-30T12:29:11;27.00;99.90
16315;DHT22;8266;52.150;4.768;2023-07-30T12:31:38;27.00;99.90
16315;DHT22;8266;52.150;4.768;2023-07-30T12:34:05;27.00;99.90
16315;DHT22;8266;52.150;4.768;2023-07-30T12:36:32;27.00;99.90
16315;DHT22;8266;52.150;4.768;2023-07-30T12:38:59;27.00;99.90
16315;DHT22;8266;52.150;4.768;2023-07-30T12:41:26;27.10;99.90
16315;DHT22;8266;52.150;4.768;2023-07-30T12:43:55;27.00;99.90
16315;DHT22;8266;52.150;4.768;2023-07-30T12:46:22;27.00;99.90
16315;DHT22;8266;52.150;4.768;2023-07-30T12:48:51;27.00;99.90
16315;DHT22;8266;52.150;4.768;2023-07-30T12:51:18;26.90;99.90
16315;DHT22;8266;52.150;4.768;2023-07-30T12:53:45;26.90;99.90
16315;DHT22;8266;52.150;4.768;2023-07-30T12:56:12;26.90;99.90
16315;DHT22;8266;52.150;4.768;2023-07-30T12:58:40;26.90;99.90
16315;DHT22;8266;52.150;4.768;2023-07-30T13:01:08;26.80;99.90
16315;DHT22;8266;52.150;4.768;2023-07-30T13:03:35;26.70;99.90
16315;DHT22;8266;52.150;4.768;2023-07-30T13:06:02;26.60;99.90
16315;DHT22;8266;52.150;4.768;2023-07-30T13:08:29;26.50;99.90
16315;DHT22;8266;52.150;4.768;2023-07-30T13:10:56;26.40;99.90
16315;DHT22;8266;52.150;4.768;2023-07-30T13:13:23;26.40;99.90
16315;DHT22;8266;52.150;4.768;2023-07-30T13:15:50;26.30;99.90
16315;DHT22;8266;52.150;4.768;2023-07-30T13:18:18;26.30;99.90
16315;DHT22;8266;52.150;4.768;2023-07-30T13:20:45;26.30;99.90
16315;DHT22;8266;52.150;4.768;2023-07-30T13:23:13;26.20;99.90
16315;DHT22;8266;52.150;4.768;2023-07-30T13:25:40;26.20;99.90
16315;DHT22;8266;52.150;4.768;2023-07-30T13:28:07;26.20;99.90
16315;DHT22;8266;52.150;4.768;2023-07-30T13:30:33;26.20;99.90
16315;DHT22;8266;52.150;4.768;2023-07-30T13:33:01;26.20;99.90
16315;DHT22;8266;52.150;4.768;2023-07-30T13:35:29;26.20;99.90
16315;DHT22;8266;52.150;4.768;2023-07-30T13:37:56;26.20;99.90
16315;DHT22;8266;52.150;4.768;2023-07-30T13:40:23;26.20;99.90
16315;DHT22;8266;52.150;4.768;2023-07-30T13:42:50;26.20;99.90
16315;DHT22;8266;52.150;4.768;2023-07-30T13:45:17;26.20;99.90
16315;DHT22;8266;52.150;4.768;2023-07-30T13:47:44;26.20;99.90
16315;DHT22;8266;52.150;4.768;2023-07-30T13:50:11;26.10;99.90
16315;DHT22;8266;52.150;4.768;2023-07-30T13:52:39;26.10;99.90
16315;DHT22;8266;52.150;4.768;2023-07-30T13:55:07;26.10;99.90
16315;DHT22;8266;52.150;4.768;2023-07-30T13:57:34;26.00;99.90
16315;DHT22;8266;52.150;4.768;2023-07-30T14:00:00;26.00;99.90
16315;DHT22;8266;52.150;4.768;2023-07-30T14:02:27;25.90;99.90
16315;DHT22;8266;52.150;4.768;2023-07-30T14:04:54;25.80;99.90
16315;DHT22;8266;52.150;4.768;2023-07-30T14:07:21;25.80;99.90
16315;DHT22;8266;52.150;4.768;2023-07-30T14:09:49;25.70;99.90
16315;DHT22;8266;52.150;4.768;2023-07-30T14:12:16;25.70;99.90
16315;DHT22;8266;52.150;4.768;2023-07-30T14:14:43;25.60;99.90
16315;DHT22;8266;52.150;4.768;2023-07-30T14:17:10;25.60;99.90
16315;DHT22;8266;52.150;4.768;2023-07-30T14:19:37;25.60;99.90
16315;DHT22;8266;52.150;4.768;2023-07-30T14:22:05;25.60;99.90
16315;DHT22;8266;52.150;4.768;2023-07-30T14:24:32;25.70;99.90
16315;DHT22;8266;52.150;4.768;2023-07-30T14:27:01;25.70;99.90
16315;DHT22;8266;52.150;4.768;2023-07-30T14:29:28;25.80;99.90
16315;DHT22;8266;52.150;4.768;2023-07-30T14:31:55;25.80;99.90
16315;DHT22;8266;52.150;4.768;2023-07-30T14:34:22;25.80;99.90
16315;DHT22;8266;52.150;4.768;2023-07-30T14:36:49;26.00;99.90
16315;DHT22;8266;52.150;4.768;2023-07-30T14:39:15;26.10;99.90
16315;DHT22;8266;52.150;4.768;2023-07-30T14:41:43;26.20;99.90
16315;DHT22;8266;52.150;4.768;2023-07-30T14:44:11;26.30;99.90
16315;DHT22;8266;52.150;4.768;2023-07-30T14:46:38;26.40;99.90
16315;DHT22;8266;52.150;4.768;2023-07-30T14:49:05;26.40;99.90
16315;DHT22;8266;52.150;4.768;2023-07-30T14:51:32;26.50;99.90
16315;DHT22;8266;52.150;4.768;2023-07-30T14:53:59;26.50;99.90
16315;DHT22;8266;52.150;4.768;2023-07-30T14:56:26;26.40;99.90
16315;DHT22;8266;52.150;4.768;2023-07-30T14:58:52;26.40;99.90
16315;DHT22;8266;52.150;4.768;2023-07-30T15:01:22;26.40;99.90
16315;DHT22;8266;52.150;4.768;2023-07-30T15:03:49;26.30;99.90
16315;DHT22;8266;52.150;4.768;2023-07-30T15:06:17;26.30;99.90
16315;DHT22;8266;52.150;4.768;2023-07-30T15:08:44;26.30;99.90
16315;DHT22;8266;52.150;4.768;2023-07-30T15:11:11;26.30;99.90
16315;DHT22;8266;52.150;4.768;2023-07-30T15:13:39;26.20;99.90
16315;DHT22;8266;52.150;4.768;2023-07-30T15:16:06;26.20;99.90
16315;DHT22;8266;52.150;4.768;2023-07-30T15:18:34;26.10;99.90
16315;DHT22;8266;52.150;4.768;2023-07-30T15:21:01;26.10;99.90
16315;DHT22;8266;52.150;4.768;2023-07-30T15:23:28;26.00;99.90
16315;DHT22;8266;52.150;4.768;2023-07-30T15:25:55;25.90;99.90
16315;DHT22;8266;52.150;4.768;2023-07-30T15:28:23;25.90;99.90
16315;DHT22;8266;52.150;4.768;2023-07-30T15:30:50;25.80;99.90
16315;DHT22;8266;52.150;4.768;2023-07-30T15:33:17;25.80;99.90
16315;DHT22;8266;52.150;4.768;2023-07-30T15:35:46;25.80;99.90
16315;DHT22;8266;52.150;4.768;2023-07-30T15:38:13;25.90;99.90
16315;DHT22;8266;52.150;4.768;2023-07-30T15:40:41;25.80;99.90
16315;DHT22;8266;52.150;4.768;2023-07-30T15:43:08;25.80;99.90
16315;DHT22;8266;52.150;4.768;2023-07-30T15:45:37;25.80;99.90
16315;DHT22;8266;52.150;4.768;2023-07-30T15:48:08;25.80;99.90